Time;durP1;ratioP1;P1;durP2;ratioP2;P2;SDS_P1;SDS_P2;PMS_P1;PMS_P2;Temp;Humidity;BMP_temperature;BMP_pressure;BME280_temperature;BME280_humidity;BME280_pressure;Samples;Min_cycle;Max_cycle;Signal;HPM_P1;HPM_P2
2021/10/28 00:14:47;;;;;;;5.69;3.95;;;;;;;19.81;60.08;100987.64;;;;-49
2021/10/28 00:17:58;;;;;;;5.88;4.07;;;;;;;19.80;60.08;100986.67;;;;-48
2021/10/28 00:20:45;;;;;;;5.99;4.06;;;;;;;19.79;60.02;100982.48;;;;-48
2021/10/28 00:23:47;;;;;;;5.63;4.10;;;;;;;19.78;60.09;100979.24;;;;-48
2021/10/28 00:26:45;;;;;;;4.73;3.67;;;;;;;19.77;60.10;100978.72;;;;-48
2021/10/28 00:29:45;;;;;;;5.29;3.99;;;;;;;19.76;60.09;100974.50;;;;-49
2021/10/28 00:32:45;;;;;;;4.81;3.88;;;;;;;19.75;60.13;100974.95;;;;-49
2021/10/28 00:35:45;;;;;;;4.63;3.70;;;;;;;19.75;60.13;100974.22;;;;-49
2021/10/28 00:38:45;;;;;;;4.57;3.78;;;;;;;19.73;60.15;100978.26;;;;-55
2021/10/28 00:41:45;;;;;;;5.32;4.08;;;;;;;19.72;60.14;100977.45;;;;-55
2021/10/28 00:44:45;;;;;;;4.47;3.71;;;;;;;19.71;60.16;100977.25;;;;-55
2021/10/28 00:47:45;;;;;;;4.92;3.79;;;;;;;19.70;60.15;100971.08;;;;-55
2021/10/28 00:50:45;;;;;;;4.65;3.93;;;;;;;19.69;60.16;100970.86;;;;-54
2021/10/28 00:53:45;;;;;;;4.77;3.75;;;;;;;19.68;60.25;100972.56;;;;-55
2021/10/28 00:56:45;;;;;;;4.23;3.45;;;;;;;19.67;60.17;100973.34;;;;-55
2021/10/28 00:59:45;;;;;;;4.90;3.95;;;;;;;19.68;60.25;100975.41;;;;-56
2021/10/28 01:02:45;;;;;;;4.28;3.43;;;;;;;19.66;60.25;100973.75;;;;-56
2021/10/28 01:05:45;;;;;;;4.50;3.69;;;;;;;19.66;60.19;100974.56;;;;-55
2021/10/28 01:08:45;;;;;;;4.51;3.68;;;;;;;19.64;60.23;100971.45;;;;-55
2021/10/28 01:11:45;;;;;;;5.07;3.59;;;;;;;19.63;60.27;100969.22;;;;-56
2021/10/28 01:14:45;;;;;;;4.79;3.75;;;;;;;19.63;60.19;100969.30;;;;-55
2021/10/28 01:17:45;;;;;;;4.85;3.80;;;;;;;19.62;60.22;100970.28;;;;-56
2021/10/28 01:20:45;;;;;;;4.36;3.60;;;;;;;19.62;60.19;100974.84;;;;-55
2021/10/28 01:23:46;;;;;;;3.91;3.39;;;;;;;19.61;60.29;100968.79;;;;-55
2021/10/28 01:26:46;;;;;;;4.46;3.42;;;;;;;19.59;60.28;100965.75;;;;-55
2021/10/28 01:29:45;;;;;;;4.41;3.45;;;;;;;19.57;60.33;100961.28;;;;-55
2021/10/28 01:32:45;;;;;;;4.18;3.54;;;;;;;19.58;60.29;100958.03;;;;-56
2021/10/28 01:35:45;;;;;;;4.18;3.71;;;;;;;19.57;60.27;100955.19;;;;-54
2021/10/28 01:38:45;;;;;;;4.08;3.53;;;;;;;19.56;60.22;100954.02;;;;-56
2021/10/28 01:41:45;;;;;;;3.83;3.43;;;;;;;19.56;60.31;100958.48;;;;-56
2021/10/28 01:44:45;;;;;;;3.48;3.18;;;;;;;19.55;60.35;100958.48;;;;-54
2021/10/28 01:47:45;;;;;;;4.09;3.31;;;;;;;19.54;60.33;100957.89;;;;-55
2021/10/28 01:50:45;;;;;;;4.00;3.15;;;;;;;19.53;60.32;100956.51;;;;-56
2021/10/28 01:53:45;;;;;;;4.46;3.43;;;;;;;19.52;60.32;100950.62;;;;-56
2021/10/28 01:56:45;;;;;;;3.79;3.25;;;;;;;19.51;60.31;100944.12;;;;-56
2021/10/28 01:59:45;;;;;;;3.79;3.22;;;;;;;19.51;60.41;100945.64;;;;-56
2021/10/28 02:02:45;;;;;;;4.50;3.35;;;;;;;19.51;60.31;100944.20;;;;-56
2021/10/28 02:05:45;;;;;;;3.69;3.17;;;;;;;19.50;60.39;100941.66;;;;-49
2021/10/28 02:08:45;;;;;;;3.99;3.47;;;;;;;19.49;60.31;100940.11;;;;-49
2021/10/28 02:11:45;;;;;;;3.76;3.27;;;;;;;19.48;60.44;100927.48;;;;-49
2021/10/28 02:14:45;;;;;;;4.01;3.35;;;;;;;19.47;60.51;100923.98;;;;-49
2021/10/28 02:17:45;;;;;;;3.81;3.39;;;;;;;19.47;60.43;100929.52;;;;-49
2021/10/28 02:20:46;;;;;;;3.41;3.11;;;;;;;19.47;60.42;100929.76;;;;-49
2021/10/28 02:23:45;;;;;;;3.65;3.34;;;;;;;19.46;60.34;100924.36;;;;-49
2021/10/28 02:26:45;;;;;;;3.37;3.00;;;;;;;19.46;60.34;100919.44;;;;-49
2021/10/28 02:29:45;;;;;;;3.34;3.03;;;;;;;19.46;60.40;100922.17;;;;-49
2021/10/28 02:32:45;;;;;;;3.62;3.11;;;;;;;19.45;60.33;100920.70;;;;-49
2021/10/28 02:35:45;;;;;;;3.47;3.09;;;;;;;19.45;60.45;100920.38;;;;-49
2021/10/28 02:38:45;;;;;;;3.29;2.99;;;;;;;19.43;60.46;100919.87;;;;-49
2021/10/28 02:41:45;;;;;;;3.83;3.29;;;;;;;19.43;60.40;100915.07;;;;-49
2021/10/28 02:44:45;;;;;;;3.75;3.11;;;;;;;19.42;60.42;100916.94;;;;-49
2021/10/28 02:47:45;;;;;;;3.49;3.04;;;;;;;19.42;60.34;100916.34;;;;-49
2021/10/28 02:50:46;;;;;;;3.74;3.29;;;;;;;19.41;60.46;100912.52;;;;-54
2021/10/28 02:53:45;;;;;;;3.68;3.05;;;;;;;19.41;60.51;100912.52;;;;-56
2021/10/28 02:56:45;;;;;;;3.15;2.84;;;;;;;19.40;60.43;100914.64;;;;-55
2021/10/28 02:59:45;;;;;;;3.16;2.86;;;;;;;19.39;60.45;100914.85;;;;-55
2021/10/28 03:02:45;;;;;;;3.71;3.05;;;;;;;19.39;60.51;100912.25;;;;-56
2021/10/28 03:05:45;;;;;;;3.50;3.18;;;;;;;19.39;60.39;100911.84;;;;-54
2021/10/28 03:08:47;;;;;;;3.75;3.13;;;;;;;19.37;60.43;100907.83;;;;-56
2021/10/28 03:11:47;;;;;;;3.47;2.86;;;;;;;19.37;60.40;100910.52;;;;-56
2021/10/28 03:14:50;;;;;;;6.78;3.03;;;;;;;19.36;60.40;100910.02;;;;-54
2021/10/28 03:18:06;;;;;;;3.61;2.92;;;;;;;19.37;60.50;100914.25;;;;-55
2021/10/28 03:26:45;;;;;;;3.73;3.13;;;;;;;19.35;60.41;100911.30;;;;-49
2021/10/28 03:29:45;;;;;;;3.28;2.92;;;;;;;19.34;60.42;100916.98;;;;-48
2021/10/28 03:32:45;;;;;;;3.12;2.80;;;;;;;19.34;60.45;100923.16;;;;-55
2021/10/28 03:35:47;;;;;;;3.34;2.79;;;;;;;19.33;60.42;100918.34;;;;-55
2021/10/28 03:38:53;;;;;;;2.82;2.59;;;;;;;19.33;60.43;100924.27;;;;-56
2021/10/28 03:42:22;;;;;;;3.57;3.11;;;;;;;19.32;60.51;100924.97;;;;-55
2021/10/28 03:45:12;;;;;;;3.25;2.71;;;;;;;19.31;60.37;100926.84;;;;-48
2021/10/28 03:48:19;;;;;;;3.21;2.83;;;;;;;19.31;60.44;100926.03;;;;-49
2021/10/28 03:51:10;;;;;;;2.99;2.69;;;;;;;19.30;60.47;100928.03;;;;-48
2021/10/28 03:54:13;;;;;;;3.19;2.81;;;;;;;19.29;60.54;100923.31;;;;-48
2021/10/28 04:02:49;;;;;;;3.19;2.89;;;;;;;19.28;60.48;100923.80;;;;-56
2021/10/28 04:18:17;;;;;;;3.43;3.08;;;;;;;19.25;60.47;100909.44;;;;-56
2021/10/28 04:20:57;;;;;;;3.57;2.93;;;;;;;19.25;60.49;100907.33;;;;-56
2021/10/28 04:29:45;;;;;;;3.23;2.93;;;;;;;19.23;60.44;100912.34;;;;-56
2021/10/28 04:32:45;;;;;;;3.02;2.72;;;;;;;19.23;60.43;100913.07;;;;-56
2021/10/28 04:35:45;;;;;;;3.29;2.70;;;;;;;19.23;60.38;100912.42;;;;-56
2021/10/28 04:38:45;;;;;;;2.91;2.61;;;;;;;19.22;60.42;100903.97;;;;-56
2021/10/28 04:41:45;;;;;;;3.17;2.87;;;;;;;19.22;60.44;100902.34;;;;-56
2021/10/28 04:44:45;;;;;;;2.92;2.65;;;;;;;19.22;60.47;100898.28;;;;-55
2021/10/28 04:47:45;;;;;;;3.05;2.76;;;;;;;19.21;60.49;100900.20;;;;-55
2021/10/28 04:50:45;;;;;;;3.10;2.80;;;;;;;19.22;60.43;100904.05;;;;-54
2021/10/28 04:53:45;;;;;;;3.44;2.88;;;;;;;19.23;60.53;100906.08;;;;-48
2021/10/28 04:56:45;;;;;;;3.02;2.67;;;;;;;19.24;60.44;100904.73;;;;-56
2021/10/28 04:59:45;;;;;;;2.82;2.53;;;;;;;19.25;60.44;100914.56;;;;-56
2021/10/28 05:02:45;;;;;;;3.41;2.69;;;;;;;19.25;60.51;100908.38;;;;-55
2021/10/28 05:05:45;;;;;;;3.03;2.71;;;;;;;19.27;60.49;100912.80;;;;-48
2021/10/28 05:08:45;;;;;;;2.74;2.54;;;;;;;19.28;60.52;100916.25;;;;-48
2021/10/28 05:11:45;;;;;;;3.05;2.63;;;;;;;19.30;60.48;100915.47;;;;-57
2021/10/28 05:14:45;;;;;;;2.73;2.53;;;;;;;19.31;60.54;100914.66;;;;-56
2021/10/28 05:17:45;;;;;;;10.38;7.95;;;;;;;19.04;55.49;100917.91;;;;-58
2021/10/28 05:20:45;;;;;;;14.05;12.31;;;;;;;18.64;53.86;100908.31;;;;-53
2021/10/28 05:23:46;;;;;;;13.03;10.55;;;;;;;18.50;53.79;100908.38;;;;-46
2021/10/28 05:26:45;;;;;;;13.11;9.47;;;;;;;18.66;55.28;100901.69;;;;-59
2021/10/28 05:29:45;;;;;;;10.09;8.39;;;;;;;18.75;56.27;100905.97;;;;-48
2021/10/28 05:32:45;;;;;;;8.55;7.39;;;;;;;18.83;56.29;100903.86;;;;-48
2021/10/28 05:35:45;;;;;;;8.35;6.87;;;;;;;18.89;56.93;100905.58;;;;-53
2021/10/28 05:38:45;;;;;;;7.77;6.73;;;;;;;18.93;57.44;100905.97;;;;-48
2021/10/28 05:41:46;;;;;;;7.32;6.46;;;;;;;18.97;57.65;100912.53;;;;-48
2021/10/28 05:44:45;;;;;;;6.33;5.43;;;;;;;19.01;57.87;100913.57;;;;-48
2021/10/28 05:47:45;;;;;;;6.53;5.25;;;;;;;19.03;58.04;100909.38;;;;-48
2021/10/28 05:50:45;;;;;;;6.21;5.07;;;;;;;19.05;58.13;100908.03;;;;-59
2021/10/28 05:53:46;;;;;;;5.82;4.74;;;;;;;19.07;58.26;100907.38;;;;-59
2021/10/28 05:56:45;;;;;;;5.25;4.70;;;;;;;19.08;58.26;100910.83;;;;-48
2021/10/28 05:59:45;;;;;;;5.99;4.65;;;;;;;19.10;58.40;100905.81;;;;-48
2021/10/28 06:02:45;;;;;;;5.08;4.36;;;;;;;19.11;58.56;100909.63;;;;-46
2021/10/28 06:05:45;;;;;;;4.65;4.07;;;;;;;19.12;58.57;100918.77;;;;-46
2021/10/28 06:08:45;;;;;;;5.25;4.23;;;;;;;19.13;58.68;100915.52;;;;-46
2021/10/28 06:11:45;;;;;;;4.87;3.75;;;;;;;19.13;58.68;100919.74;;;;-58
2021/10/28 06:14:45;;;;;;;4.45;3.84;;;;;;;19.14;58.78;100922.45;;;;-46
2021/10/28 06:17:52;;;;;;;4.87;3.73;;;;;;;19.14;58.81;100920.75;;;;-48
2021/10/28 06:20:45;;;;;;;4.10;3.70;;;;;;;19.14;58.87;100917.41;;;;-48
2021/10/28 06:23:45;;;;;;;10.93;10.05;;;;;;;19.15;58.90;100916.52;;;;-46
2021/10/28 06:26:45;;;;;;;4.29;3.37;;;;;;;19.15;58.85;100917.98;;;;-45
2021/10/28 06:29:45;;;;;;;4.07;3.14;;;;;;;19.15;58.93;100919.04;;;;-58
2021/10/28 06:32:46;;;;;;;3.27;2.97;;;;;;;19.15;58.95;100921.72;;;;-46
2021/10/28 06:35:46;;;;;;;3.53;3.21;;;;;;;19.16;59.01;100914.92;;;;-58
2021/10/28 06:38:45;;;;;;;3.68;3.26;;;;;;;19.15;59.03;100922.13;;;;-48
2021/10/28 06:41:45;;;;;;;3.33;3.02;;;;;;;19.15;58.99;100922.38;;;;-48
2021/10/28 06:44:45;;;;;;;3.57;3.16;;;;;;;19.15;59.04;100922.65;;;;-48
2021/10/28 06:47:45;;;;;;;3.50;3.20;;;;;;;19.15;59.04;100930.77;;;;-53
2021/10/28 06:50:51;;;;;;;3.41;3.09;;;;;;;19.16;59.10;100928.91;;;;-53
2021/10/28 06:53:55;;;;;;;3.46;3.11;;;;;;;19.16;59.06;100932.97;;;;-58
2021/10/28 06:57:00;;;;;;;3.18;2.90;;;;;;;19.15;59.08;100938.25;;;;-49
2021/10/28 07:02:45;;;;;;;3.41;3.11;;;;;;;19.16;59.25;100944.26;;;;-53
2021/10/28 07:05:45;;;;;;;3.27;2.97;;;;;;;19.15;59.19;100941.06;;;;-51
2021/10/28 07:08:48;;;;;;;3.29;2.73;;;;;;;19.15;59.21;100941.55;;;;-46
2021/10/28 07:11:50;;;;;;;3.74;3.09;;;;;;;19.15;59.21;100947.40;;;;-51
2021/10/28 07:14:48;;;;;;;4.03;3.25;;;;;;;19.15;59.20;100948.13;;;;-59
2021/10/28 07:18:02;;;;;;;3.36;3.06;;;;;;;19.14;59.22;100946.25;;;;-46
2021/10/28 07:21:56;;;;;;;3.25;2.93;;;;;;;19.14;59.28;100947.31;;;;-58
2021/10/28 07:25:55;;;;;;;3.17;2.87;;;;;;;19.14;59.22;100949.27;;;;-58
2021/10/28 07:36:19;;;;;;;4.72;3.05;;;;;;;19.18;59.58;100943.48;;;;-51
2021/10/28 07:39:13;;;;;;;4.12;2.97;;;;;;;19.21;59.51;100951.72;;;;-52
2021/10/28 08:14:10;;;;;;;3.25;2.40;;;;;;;19.55;59.65;100931.87;;;;-55
2021/10/28 08:17:02;;;;;;;3.22;2.50;;;;;;;19.57;59.68;100936.32;;;;-47
2021/10/28 08:19:48;;;;;;;10.73;2.98;;;;;;;19.63;59.96;100933.28;;;;-51
2021/10/28 08:22:48;;;;;;;3.42;2.89;;;;;;;19.67;59.69;100933.34;;;;-48
2021/10/28 08:28:49;;;;;;;3.56;2.80;;;;;;;19.74;59.44;100932.75;;;;-54
2021/10/28 08:31:45;;;;;;;5.38;2.94;;;;;;;19.78;59.58;100924.42;;;;-50
2021/10/28 08:34:45;;;;;;;3.10;2.79;;;;;;;19.82;59.91;100922.91;;;;-50
2021/10/28 08:37:49;;;;;;;3.82;2.96;;;;;;;19.84;59.33;100919.95;;;;-51
2021/10/28 08:40:45;;;;;;;4.46;3.12;;;;;;;19.87;59.32;100916.96;;;;-48
2021/10/28 08:43:46;;;;;;;3.19;2.89;;;;;;;19.89;59.60;100912.34;;;;-45
2021/10/28 08:46:46;;;;;;;4.73;2.76;;;;;;;19.93;59.39;100905.81;;;;-53
2021/10/28 08:49:48;;;;;;;3.32;2.81;;;;;;;19.96;59.31;100908.52;;;;-54
2021/10/28 08:53:15;;;;;;;2.89;2.43;;;;;;;19.99;59.34;100906.29;;;;-48
2021/10/28 08:55:49;;;;;;;4.31;2.85;;;;;;;20.00;59.42;100905.14;;;;-54
2021/10/28 08:59:09;;;;;;;3.17;2.83;;;;;;;20.01;59.35;100896.38;;;;-54
2021/10/28 09:23:54;;;;;;;3.64;2.95;;;;;;;20.13;59.48;100888.63;;;;-49
2021/10/28 09:25:49;;;;;;;4.97;2.94;;;;;;;20.17;59.18;100890.19;;;;-52
2021/10/28 09:28:48;;;;;;;4.85;3.14;;;;;;;20.18;58.83;100889.72;;;;-52
2021/10/28 09:31:50;;;;;;;3.37;3.07;;;;;;;20.20;58.80;100889.75;;;;-50
2021/10/28 09:35:19;;;;;;;3.60;2.95;;;;;;;20.23;59.15;100888.16;;;;-48
2021/10/28 09:43:54;;;;;;;3.95;3.45;;;;;;;20.27;58.43;100880.37;;;;-57
2021/10/28 09:46:47;;;;;;;4.55;3.27;;;;;;;20.30;58.62;100881.14;;;;-57
2021/10/28 09:50:00;;;;;;;4.58;3.33;;;;;;;20.32;58.52;100881.41;;;;-47
2021/10/28 09:52:56;;;;;;;3.89;2.81;;;;;;;20.34;58.59;100880.45;;;;-50
2021/10/28 09:58:45;;;;;;;5.77;3.09;;;;;;;20.36;58.94;100875.72;;;;-49
2021/10/28 10:01:46;;;;;;;4.47;3.03;;;;;;;20.35;58.46;100874.26;;;;-59
2021/10/28 10:08:45;;;;;;;4.00;3.60;;;;;;;20.37;57.60;100878.42;;;;-47
2021/10/28 10:11:45;;;;;;;4.41;3.59;;;;;;;20.39;57.54;100879.51;;;;-48
2021/10/28 10:14:45;;;;;;;4.63;3.53;;;;;;;20.40;56.89;100877.06;;;;-51
2021/10/28 10:17:45;;;;;;;3.80;3.40;;;;;;;20.42;57.72;100873.42;;;;-51
2021/10/28 10:20:48;;;;;;;4.75;3.51;;;;;;;20.43;57.67;100878.57;;;;-51
2021/10/28 10:23:58;;;;;;;4.27;3.24;;;;;;;20.43;57.98;100879.14;;;;-51
2021/10/28 10:27:11;;;;;;;3.42;3.12;;;;;;;20.45;58.16;100880.70;;;;-49
2021/10/28 10:30:08;;;;;;;3.95;3.04;;;;;;;20.45;58.25;100881.52;;;;-49
2021/10/28 11:27:14;;;;;;;4.88;3.78;;;;;;;20.68;57.67;100828.23;;;;-51
2021/10/28 12:19:55;;;;;;;4.79;2.95;;;;;;;20.97;59.32;100736.03;;;;-54
2021/10/28 12:28:07;;;;;;;5.13;2.92;;;;;;;21.01;58.71;100724.48;;;;-61
2021/10/28 12:45:49;;;;;;;5.14;3.10;;;;;;;20.98;58.56;100707.42;;;;-60
2021/10/28 12:49:05;;;;;;;6.47;2.87;;;;;;;20.97;58.56;100704.91;;;;-49
2021/10/28 12:52:06;;;;;;;8.87;3.31;;;;;;;20.97;58.74;100703.11;;;;-48
2021/10/28 12:55:07;;;;;;;5.58;3.35;;;;;;;20.94;58.07;100701.08;;;;-49
2021/10/28 13:03:04;;;;;;;7.75;3.51;;;;;;;20.92;57.08;100697.89;;;;-49
2021/10/28 13:06:20;;;;;;;5.83;3.19;;;;;;;20.93;57.42;100694.71;;;;-51
2021/10/28 13:48:52;;;;;;;3.67;2.47;;;;;;;20.94;58.37;100645.44;;;;-54
2021/10/28 13:51:55;;;;;;;3.77;2.79;;;;;;;20.94;58.40;100644.78;;;;-50
2021/10/28 13:55:06;;;;;;;3.05;2.69;;;;;;;20.94;58.42;100646.90;;;;-50
2021/10/28 14:37:10;;;;;;;2.55;2.35;;;;;;;20.97;58.59;100625.15;;;;-51
2021/10/28 16:24:19;;;;;;;7.77;2.66;;;;;;;21.38;58.51;100555.52;;;;-52
2021/10/28 16:27:19;;;;;;;5.65;2.71;;;;;;;21.37;58.77;100556.84;;;;-53
2021/10/28 16:30:19;;;;;;;6.35;2.63;;;;;;;21.36;58.84;100555.03;;;;-49
2021/10/28 16:33:19;;;;;;;7.09;3.09;;;;;;;21.37;58.97;100556.16;;;;-57
2021/10/28 16:36:21;;;;;;;3.69;2.47;;;;;;;21.37;59.11;100561.29;;;;-49
2021/10/28 16:39:19;;;;;;;3.26;2.51;;;;;;;21.38;58.91;100560.17;;;;-49
2021/10/28 16:42:20;;;;;;;7.17;2.53;;;;;;;21.38;59.01;100560.74;;;;-45
2021/10/28 16:45:19;;;;;;;3.17;2.47;;;;;;;21.38;59.17;100558.94;;;;-51
2021/10/28 16:48:19;;;;;;;5.52;2.62;;;;;;;21.39;59.23;100556.66;;;;-53
2021/10/28 16:51:19;;;;;;;3.65;2.52;;;;;;;21.40;59.30;100561.56;;;;-53
2021/10/28 16:54:19;;;;;;;4.27;2.27;;;;;;;21.40;59.26;100560.25;;;;-52
2021/10/28 16:57:19;;;;;;;2.79;2.40;;;;;;;21.40;59.19;100565.06;;;;-51
2021/10/28 17:00:19;;;;;;;2.73;2.41;;;;;;;21.40;59.24;100560.98;;;;-50
2021/10/28 17:03:19;;;;;;;3.51;2.63;;;;;;;21.42;59.37;100564.03;;;;-48
2021/10/28 17:06:21;;;;;;;3.43;2.51;;;;;;;21.42;59.22;100566.05;;;;-53
2021/10/28 17:09:19;;;;;;;3.99;2.71;;;;;;;21.42;59.28;100568.92;;;;-51
2021/10/28 17:12:19;;;;;;;3.37;2.73;;;;;;;21.43;59.14;100563.13;;;;-49
2021/10/28 17:15:19;;;;;;;2.94;2.55;;;;;;;21.43;59.22;100565.08;;;;-51
2021/10/28 17:18:19;;;;;;;4.21;2.53;;;;;;;21.44;59.36;100568.19;;;;-52
2021/10/28 17:21:19;;;;;;;3.91;2.87;;;;;;;21.45;59.31;100569.41;;;;-51
2021/10/28 17:24:26;;;;;;;3.12;2.67;;;;;;;21.46;59.29;100570.16;;;;-49
2021/10/28 17:27:20;;;;;;;4.07;2.59;;;;;;;21.45;59.26;100567.04;;;;-52
2021/10/28 17:30:19;;;;;;;3.45;2.79;;;;;;;21.46;59.20;100569.23;;;;-51
2021/10/28 17:33:19;;;;;;;4.43;3.12;;;;;;;21.46;58.51;100569.88;;;;-51
2021/10/28 17:36:19;;;;;;;3.45;2.79;;;;;;;21.45;58.70;100570.71;;;;-56
2021/10/28 17:39:20;;;;;;;3.16;2.52;;;;;;;21.43;58.64;100570.54;;;;-56
2021/10/28 17:42:19;;;;;;;4.00;2.73;;;;;;;21.42;58.70;100569.41;;;;-56
2021/10/28 17:45:20;;;;;;;5.00;2.59;;;;;;;21.42;58.67;100567.67;;;;-56
2021/10/28 17:48:19;;;;;;;3.38;2.67;;;;;;;21.41;58.72;100572.72;;;;-51
2021/10/28 17:51:20;;;;;;;3.83;2.51;;;;;;;21.42;58.64;100578.52;;;;-51
2021/10/28 17:54:19;;;;;;;3.89;2.49;;;;;;;21.42;58.69;100582.92;;;;-51
2021/10/28 17:57:19;;;;;;;4.87;2.55;;;;;;;21.42;58.68;100586.78;;;;-51
2021/10/28 18:00:19;;;;;;;2.69;2.49;;;;;;;21.41;58.70;100580.38;;;;-54
2021/10/28 18:03:20;;;;;;;2.78;2.35;;;;;;;21.42;58.65;100581.23;;;;-50
2021/10/28 18:06:19;;;;;;;3.21;2.47;;;;;;;21.43;58.69;100581.30;;;;-51
2021/10/28 18:09:22;;;;;;;3.01;2.71;;;;;;;21.44;58.69;100578.63;;;;-51
2021/10/28 18:12:19;;;;;;;3.24;2.43;;;;;;;21.46;58.71;100575.59;;;;-51
2021/10/28 18:15:19;;;;;;;2.56;2.36;;;;;;;21.45;58.69;100569.64;;;;-59
2021/10/28 18:18:19;;;;;;;2.44;2.23;;;;;;;21.46;58.70;100561.23;;;;-59
2021/10/28 18:21:19;;;;;;;3.07;2.57;;;;;;;21.46;58.67;100554.91;;;;-59
2021/10/28 18:24:19;;;;;;;2.73;2.36;;;;;;;21.46;58.69;100561.66;;;;-51
2021/10/28 18:27:19;;;;;;;3.35;2.60;;;;;;;21.46;58.74;100555.80;;;;-58
2021/10/28 18:30:19;;;;;;;3.35;2.68;;;;;;;21.46;58.68;100554.48;;;;-56
2021/10/28 18:33:19;;;;;;;3.89;2.39;;;;;;;21.46;58.69;100549.77;;;;-56
2021/10/28 18:36:19;;;;;;;3.33;2.71;;;;;;;21.46;58.65;100550.02;;;;-55
2021/10/28 18:39:20;;;;;;;2.69;2.49;;;;;;;21.46;58.67;100543.62;;;;-56
2021/10/28 18:42:19;;;;;;;3.97;2.71;;;;;;;21.46;58.65;100538.67;;;;-50
2021/10/28 18:45:19;;;;;;;3.07;2.77;;;;;;;21.46;58.67;100536.88;;;;-51
2021/10/28 18:48:19;;;;;;;3.51;2.62;;;;;;;21.46;58.67;100532.15;;;;-52
2021/10/28 18:51:19;;;;;;;3.56;2.84;;;;;;;21.47;58.65;100528.30;;;;-51
2021/10/28 18:54:20;;;;;;;5.39;2.91;;;;;;;21.46;58.60;100520.91;;;;-51
2021/10/28 18:57:20;;;;;;;3.53;2.93;;;;;;;21.45;58.60;100516.97;;;;-51
2021/10/28 19:00:19;;;;;;;3.91;3.04;;;;;;;21.45;58.57;100518.20;;;;-51
2021/10/28 19:03:19;;;;;;;3.35;2.91;;;;;;;21.44;58.37;100512.52;;;;-51
2021/10/28 19:06:19;;;;;;;5.01;3.02;;;;;;;21.43;58.33;100505.89;;;;-51
2021/10/28 19:09:20;;;;;;;3.35;2.95;;;;;;;21.41;58.42;100505.03;;;;-51
2021/10/28 19:12:19;;;;;;;3.91;2.72;;;;;;;21.40;58.41;100499.84;;;;-51
2021/10/28 19:15:19;;;;;;;3.18;2.88;;;;;;;21.37;58.37;100494.94;;;;-47
2021/10/28 19:18:19;;;;;;;5.39;2.98;;;;;;;21.33;58.24;100483.63;;;;-48
2021/10/28 19:21:20;;;;;;;5.14;3.79;;;;;;;21.31;57.33;100483.69;;;;-51
2021/10/28 19:24:19;;;;;;;4.17;3.77;;;;;;;21.28;56.99;100481.98;;;;-57
2021/10/28 19:27:19;;;;;;;5.00;4.33;;;;;;;21.26;56.81;100478.81;;;;-45
2021/10/28 19:30:27;;;;;;;5.11;4.30;;;;;;;21.24;56.57;100477.27;;;;-45
2021/10/28 19:33:21;;;;;;;5.83;3.99;;;;;;;21.22;56.70;100474.25;;;;-50
2021/10/28 19:36:26;;;;;;;6.14;4.13;;;;;;;21.19;56.84;100469.78;;;;-46
2021/10/28 19:39:28;;;;;;;5.05;4.14;;;;;;;21.17;56.70;100471.89;;;;-53
2021/10/28 19:46:21;;;;;;;5.18;4.27;;;;;;;21.14;56.95;100474.98;;;;-53
2021/10/28 19:49:20;;;;;;;4.92;4.19;;;;;;;21.12;56.58;100472.05;;;;-59
2021/10/28 19:52:19;;;;;;;4.56;4.09;;;;;;;21.09;56.81;100467.59;;;;-59
2021/10/28 19:55:20;;;;;;;4.89;4.24;;;;;;;21.08;56.76;100466.83;;;;-58
2021/10/28 19:58:22;;;;;;;7.50;4.28;;;;;;;21.06;56.83;100460.64;;;;-49
2021/10/28 20:01:29;;;;;;;4.91;4.25;;;;;;;21.05;56.81;100458.61;;;;-48
2021/10/28 20:04:50;;;;;;;4.71;4.17;;;;;;;21.04;56.79;100458.52;;;;-50
2021/10/28 20:07:24;;;;;;;5.29;4.41;;;;;;;21.02;56.81;100456.08;;;;-47
2021/10/28 20:13:36;;;;;;;5.23;4.63;;;;;;;20.99;56.69;100459.83;;;;-50
2021/10/28 20:22:19;;;;;;;5.87;4.66;;;;;;;20.95;56.70;100468.23;;;;-48
2021/10/28 20:25:20;;;;;;;6.51;4.63;;;;;;;20.94;56.70;100463.33;;;;-50
2021/10/28 20:28:20;;;;;;;5.57;4.59;;;;;;;20.92;56.68;100464.98;;;;-50
2021/10/28 20:31:20;;;;;;;6.24;4.82;;;;;;;20.91;56.75;100463.25;;;;-48
2021/10/28 20:34:27;;;;;;;5.19;4.69;;;;;;;20.91;56.50;100464.06;;;;-50
2021/10/28 20:37:19;;;;;;;5.27;4.59;;;;;;;20.89;56.60;100466.51;;;;-57
2021/10/28 20:40:19;;;;;;;5.91;4.83;;;;;;;20.89;56.64;100470.27;;;;-52
2021/10/28 20:43:19;;;;;;;5.55;4.77;;;;;;;20.86;56.75;100472.95;;;;-53
2021/10/28 20:46:22;;;;;;;4.90;4.40;;;;;;;20.85;57.03;100478.07;;;;-52
2021/10/28 20:49:19;;;;;;;6.85;4.49;;;;;;;20.83;57.27;100480.02;;;;-52
2021/10/28 20:52:19;;;;;;;6.36;4.71;;;;;;;20.82;57.27;100477.68;;;;-57
2021/10/28 20:55:19;;;;;;;4.81;4.25;;;;;;;20.80;57.35;100476.05;;;;-56
2021/10/28 20:58:19;;;;;;;5.61;4.73;;;;;;;20.78;57.41;100481.25;;;;-52
2021/10/28 21:01:19;;;;;;;7.82;4.47;;;;;;;20.76;57.49;100478.72;;;;-52
2021/10/28 21:04:19;;;;;;;5.15;4.65;;;;;;;20.74;57.60;100476.52;;;;-52
2021/10/28 21:07:19;;;;;;;5.17;4.36;;;;;;;20.72;57.62;100471.30;;;;-52
2021/10/28 21:10:21;;;;;;;5.73;4.69;;;;;;;20.69;57.59;100472.45;;;;-52
2021/10/28 21:13:19;;;;;;;4.86;4.36;;;;;;;20.68;57.65;100475.53;;;;-56
2021/10/28 21:16:19;;;;;;;5.22;4.68;;;;;;;20.66;57.70;100474.72;;;;-51
2021/10/28 21:19:19;;;;;;;5.17;4.57;;;;;;;20.64;57.79;100472.43;;;;-52
2021/10/28 21:22:19;;;;;;;5.77;4.45;;;;;;;20.61;57.78;100471.05;;;;-52
2021/10/28 21:25:19;;;;;;;5.63;5.09;;;;;;;20.59;57.85;100472.59;;;;-57
2021/10/28 21:28:19;;;;;;;5.69;5.09;;;;;;;20.58;57.85;100472.98;;;;-56
2021/10/28 21:31:19;;;;;;;5.14;4.67;;;;;;;20.56;57.88;100471.80;;;;-57
2021/10/28 21:34:19;;;;;;;5.21;4.56;;;;;;;20.54;57.95;100473.34;;;;-56
2021/10/28 21:37:19;;;;;;;5.45;4.95;;;;;;;20.53;57.92;100475.64;;;;-52
2021/10/28 21:40:19;;;;;;;5.09;4.59;;;;;;;20.52;58.02;100474.41;;;;-56
2021/10/28 21:43:19;;;;;;;5.19;4.69;;;;;;;20.49;58.03;100467.56;;;;-56
2021/10/28 21:46:19;;;;;;;4.93;4.43;;;;;;;20.47;58.08;100459.26;;;;-57
2021/10/28 21:49:19;;;;;;;4.96;4.46;;;;;;;20.46;58.09;100452.27;;;;-52
2021/10/28 21:52:22;;;;;;;5.48;4.79;;;;;;;20.44;58.12;100446.73;;;;-52
2021/10/28 21:55:31;;;;;;;5.09;4.59;;;;;;;20.43;58.13;100444.35;;;;-56
2021/10/28 21:58:26;;;;;;;4.93;4.51;;;;;;;20.42;58.13;100444.42;;;;-56
2021/10/28 22:01:33;;;;;;;5.17;4.67;;;;;;;20.40;58.15;100449.73;;;;-57
2021/10/28 22:04:38;;;;;;;5.44;4.94;;;;;;;20.38;58.15;100452.33;;;;-55
2021/10/28 22:27:19;;;;;;;5.53;4.77;;;;;;;20.26;58.35;100440.58;;;;-52
2021/10/28 22:30:19;;;;;;;4.92;4.42;;;;;;;20.25;58.30;100433.65;;;;-52
2021/10/28 22:33:19;;;;;;;5.04;4.52;;;;;;;20.23;58.37;100433.72;;;;-56
2021/10/28 22:36:23;;;;;;;5.10;4.60;;;;;;;20.21;58.35;100425.27;;;;-57
2021/10/28 22:39:22;;;;;;;5.18;4.68;;;;;;;20.21;58.41;100418.66;;;;-56
2021/10/28 22:42:19;;;;;;;4.94;4.54;;;;;;;20.18;58.39;100416.80;;;;-56
2021/10/28 22:45:19;;;;;;;5.04;4.45;;;;;;;20.17;58.41;100418.43;;;;-56
2021/10/28 22:48:19;;;;;;;5.08;4.68;;;;;;;20.16;58.44;100415.56;;;;-56
2021/10/28 22:51:19;;;;;;;5.09;4.59;;;;;;;20.14;58.48;100412.05;;;;-56
2021/10/28 22:54:19;;;;;;;4.93;4.47;;;;;;;20.13;58.47;100404.08;;;;-56
2021/10/28 22:57:24;;;;;;;5.20;4.70;;;;;;;20.12;58.49;100403.59;;;;-56
2021/10/28 23:00:23;;;;;;;4.97;4.49;;;;;;;20.10;58.48;100396.98;;;;-56
2021/10/28 23:03:32;;;;;;;4.73;4.33;;;;;;;20.09;58.43;100394.89;;;;-55
2021/10/28 23:06:43;;;;;;;4.71;4.31;;;;;;;20.07;58.47;100395.45;;;;-56
2021/10/28 23:14:32;;;;;;;4.64;4.24;;;;;;;20.05;58.52;100387.72;;;;-56
2021/10/28 23:23:19;;;;;;;4.92;4.49;;;;;;;20.00;58.59;100378.33;;;;-56
2021/10/28 23:26:19;;;;;;;4.85;4.45;;;;;;;19.99;58.47;100375.34;;;;-56
2021/10/28 23:29:19;;;;;;;4.73;4.33;;;;;;;19.98;58.60;100377.11;;;;-55
2021/10/28 23:32:19;;;;;;;4.66;4.26;;;;;;;19.96;58.55;100373.36;;;;-56
2021/10/28 23:35:19;;;;;;;5.23;4.73;;;;;;;19.95;58.57;100372.87;;;;-56
2021/10/28 23:38:19;;;;;;;4.77;4.37;;;;;;;19.94;58.57;100372.21;;;;-56
2021/10/28 23:41:19;;;;;;;4.80;4.40;;;;;;;19.94;58.54;100365.14;;;;-56
2021/10/28 23:44:19;;;;;;;4.59;4.19;;;;;;;19.92;58.62;100356.78;;;;-56
2021/10/28 23:47:19;;;;;;;4.81;4.41;;;;;;;19.91;58.58;100352.05;;;;-51
2021/10/28 23:50:19;;;;;;;4.42;4.02;;;;;;;19.90;58.65;100347.42;;;;-51
2021/10/28 23:53:19;;;;;;;4.51;4.11;;;;;;;19.88;58.62;100344.48;;;;-51
2021/10/28 23:56:19;;;;;;;4.57;4.16;;;;;;;19.88;58.61;100344.41;;;;-52
2021/10/28 23:59:19;;;;;;;4.27;3.94;;;;;;;19.87;58.68;100336.17;;;;-52
